Time;durP1;ratioP1;P1;durP2;ratioP2;P2;SDS_P1;SDS_P2;PMS_P1;PMS_P2;Temp;Humidity;BMP_temperature;BMP_pressure;BME280_temperature;BME280_humidity;BME280_pressure;Samples;Min_cycle;Max_cycle;Signal;HPM_P1;HPM_P2
2022/10/30 00:02:31;;;;;;;19.23;4.25;;;17.10;11.60;;;;;;6287898;22;20030;-88
2022/10/30 00:05:19;;;;;;;14.75;4.00;;;17.10;13.00;;;;;;6310310;22;20030;-89
2022/10/30 00:08:10;;;;;;;12.35;4.47;;;17.00;13.20;;;;;;6311223;22;20441;-88
2022/10/30 00:11:05;;;;;;;15.30;3.83;;;17.00;12.40;;;;;;6312451;22;20315;-90
2022/10/30 00:13:54;;;;;;;11.70;3.58;;;17.00;13.00;;;;;;6312802;22;20019;-89
2022/10/30 00:16:41;;;;;;;14.77;4.55;;;16.90;13.00;;;;;;6289454;22;20363;-91
2022/10/30 00:19:28;;;;;;;14.43;3.90;;;16.90;16.10;;;;;;6309161;22;20023;-88
2022/10/30 00:22:18;;;;;;;17.25;3.88;;;16.80;17.00;;;;;;6287650;22;20034;-90
2022/10/30 00:25:05;;;;;;;17.42;4.38;;;16.70;19.30;;;;;;6286590;22;20019;-89
2022/10/30 00:27:53;;;;;;;11.70;3.90;;;16.60;20.70;;;;;;6309196;22;20029;-91
2022/10/30 00:30:43;;;;;;;12.55;3.80;;;16.60;21.10;;;;;;6308744;22;20027;-89
2022/10/30 00:33:30;;;;;;;16.02;4.50;;;16.70;21.00;;;;;;6287349;22;20045;-91
2022/10/30 00:36:18;;;;;;;13.43;3.92;;;16.70;20.80;;;;;;6308678;22;20337;-90
2022/10/30 00:39:05;;;;;;;19.42;4.07;;;16.70;20.80;;;;;;6291337;22;20027;-90
2022/10/30 00:41:55;;;;;;;13.48;3.95;;;16.60;19.90;;;;;;6315820;22;20024;-90
2022/10/30 00:44:53;;;;;;;13.23;3.58;;;16.50;26.20;;;;;;6301023;22;20024;-88
2022/10/30 00:47:49;;;;;;;16.75;4.30;;;16.40;29.00;;;;;;6313778;22;20387;-89
2022/10/30 00:50:42;;;;;;;19.17;4.30;;;16.20;32.40;;;;;;6308735;22;20027;-89
2022/10/30 00:53:29;;;;;;;11.43;3.80;;;16.10;42.10;;;;;;6286151;22;20091;-90
2022/10/30 00:56:22;;;;;;;17.27;4.22;;;16.00;49.30;;;;;;6309917;22;20471;-90
2022/10/30 00:59:12;;;;;;;15.00;3.78;;;16.00;53.30;;;;;;6308620;22;20023;-89
2022/10/30 01:02:02;;;;;;;12.45;4.00;;;15.90;58.90;;;;;;6308465;22;20035;-89
2022/10/30 01:04:51;;;;;;;17.88;4.47;;;15.90;64.80;;;;;;6285388;22;20019;-90
2022/10/30 01:07:39;;;;;;;14.18;4.25;;;15.80;73.40;;;;;;6315750;22;20059;-90
2022/10/30 01:10:26;;;;;;;14.77;4.35;;;15.70;89.20;;;;;;6309368;22;20019;-89
2022/10/30 01:13:13;;;;;;;22.13;4.18;;;15.60;87.40;;;;;;6309063;22;20049;-89
2022/10/30 01:16:34;;;;;;;15.10;3.75;;;15.50;99.00;;;;;;6309790;22;20160;-89
2022/10/30 01:19:43;;;;;;;11.35;3.80;;;15.40;99.90;;;;;;6307788;22;20023;-89
2022/10/30 01:22:39;;;;;;;14.35;3.78;;;15.30;99.90;;;;;;6309031;22;20023;-88
2022/10/30 01:25:35;;;;;;;19.90;4.70;;;15.30;99.90;;;;;;6308759;22;20091;-88
2022/10/30 01:28:39;;;;;;;17.05;4.13;;;15.40;99.90;;;;;;6308094;22;20027;-90
2022/10/30 01:31:50;;;;;;;14.63;4.57;;;15.40;99.90;;;;;;6287175;22;20113;-89
2022/10/30 01:34:49;;;;;;;15.23;4.10;;;15.50;99.90;;;;;;6308241;22;20411;-91
2022/10/30 01:37:50;;;;;;;15.35;3.97;;;15.50;99.90;;;;;;6307819;22;20035;-88
2022/10/30 01:40:37;;;;;;;16.25;3.88;;;15.60;95.90;;;;;;6308907;22;20112;-89
2022/10/30 01:43:27;;;;;;;16.70;4.40;;;15.60;95.00;;;;;;6286167;22;20059;-87
2022/10/30 01:46:17;;;;;;;14.85;4.35;;;15.60;94.50;;;;;;6306815;22;20042;-89
2022/10/30 01:49:19;;;;;;;13.13;4.22;;;15.70;99.90;;;;;;6308278;22;20023;-90
2022/10/30 01:52:11;;;;;;;22.23;4.13;;;15.70;93.80;;;;;;6307597;22;20023;-89
2022/10/30 01:55:17;;;;;;;12.40;3.90;;;15.70;94.90;;;;;;6309028;22;20037;-89
2022/10/30 01:58:10;;;;;;;14.52;3.58;;;15.60;99.00;;;;;;6307999;22;20034;-86
2022/10/30 02:00:57;;;;;;;;;;;15.40;99.90;;;;;;6309819;22;20094;-89
2022/10/30 02:03:45;;;;;;;15.55;4.57;;;15.10;99.90;;;;;;6307015;22;20511;-89
2022/10/30 02:06:36;;;;;;;14.40;4.28;;;15.00;99.90;;;;;;6309674;22;20098;-89
2022/10/30 02:09:26;;;;;;;14.90;4.85;;;14.80;99.90;;;;;;6286384;22;20106;-90
2022/10/30 02:12:14;;;;;;;21.95;4.40;;;14.80;99.90;;;;;;6308144;22;20106;-89
2022/10/30 02:15:02;;;;;;;18.10;4.35;;;14.70;99.90;;;;;;6307354;22;20038;-88
2022/10/30 02:17:51;;;;;;;18.08;4.40;;;14.70;99.90;;;;;;6309826;22;20087;-88
2022/10/30 02:20:39;;;;;;;17.88;4.38;;;14.80;99.90;;;;;;6286538;22;20454;-89
2022/10/30 02:23:26;;;;;;;14.45;4.00;;;14.90;99.90;;;;;;6311254;22;20027;-87
2022/10/30 02:26:15;;;;;;;12.82;4.05;;;14.90;99.90;;;;;;6295535;22;20377;-90
2022/10/30 02:29:02;;;;;;;20.73;4.32;;;14.90;99.90;;;;;;6317580;22;20023;-89
2022/10/30 02:31:49;;;;;;;18.60;4.68;;;14.90;99.90;;;;;;6317762;22;20042;-90
2022/10/30 02:34:42;;;;;;;17.50;4.72;;;14.90;99.90;;;;;;6310970;22;20422;-88
2022/10/30 02:37:31;;;;;;;14.65;4.07;;;14.90;99.90;;;;;;6311385;22;20027;-89
2022/10/30 02:40:20;;;;;;;15.32;4.32;;;14.90;99.90;;;;;;6290156;22;20149;-88
2022/10/30 02:43:10;;;;;;;15.98;4.40;;;14.90;99.90;;;;;;6311211;22;20019;-89
2022/10/30 02:45:57;;;;;;;17.42;4.07;;;14.80;99.90;;;;;;6310020;22;20023;-89
2022/10/30 02:48:47;;;;;;;9.68;3.88;;;14.90;99.90;;;;;;6308973;22;20027;-90
2022/10/30 02:51:34;;;;;;;14.18;4.28;;;14.80;99.90;;;;;;6286850;22;20181;-90
2022/10/30 02:54:21;;;;;;;15.60;4.32;;;14.70;99.90;;;;;;6309673;22;20090;-88
2022/10/30 02:57:09;;;;;;;13.45;4.40;;;14.60;99.90;;;;;;6310861;22;20098;-88
2022/10/30 02:59:56;;;;;;;17.63;4.90;;;14.60;99.90;;;;;;6313152;22;20075;-88
2022/10/30 03:02:43;;;;;;;15.40;4.22;;;14.70;99.90;;;;;;6313807;22;20019;-88
2022/10/30 03:05:30;;;;;;;14.98;4.75;;;14.70;99.90;;;;;;6291001;22;20027;-89
2022/10/30 03:08:17;;;;;;;10.23;4.05;;;14.60;99.90;;;;;;6308215;22;20024;-88
2022/10/30 03:11:10;;;;;;;19.30;4.65;;;14.60;99.90;;;;;;6284521;22;20027;-90
2022/10/30 03:13:57;;;;;;;19.23;4.60;;;14.90;99.90;;;;;;6309197;22;20034;-88
2022/10/30 03:16:44;;;;;;;18.77;4.93;;;15.00;99.90;;;;;;6306610;22;20079;-89
2022/10/30 03:19:31;;;;;;;17.80;4.82;;;15.00;99.90;;;;;;6307188;22;20102;-89
2022/10/30 03:22:18;;;;;;;18.10;4.10;;;14.90;99.90;;;;;;6297040;22;20020;-90
2022/10/30 03:25:08;;;;;;;18.90;4.85;;;14.80;99.90;;;;;;6324627;22;20079;-90
2022/10/30 03:27:56;;;;;;;14.40;4.55;;;14.80;99.90;;;;;;6323095;22;20055;-88
2022/10/30 03:30:43;;;;;;;13.10;3.97;;;14.70;99.90;;;;;;6306866;22;20030;-89
2022/10/30 03:33:34;;;;;;;10.77;4.43;;;14.70;99.90;;;;;;6308088;22;20461;-89
2022/10/30 03:36:22;;;;;;;14.65;4.32;;;14.70;99.90;;;;;;6286403;22;20119;-89
2022/10/30 03:39:09;;;;;;;14.73;4.00;;;14.70;99.90;;;;;;6308259;22;20027;-89
2022/10/30 03:41:56;;;;;;;21.15;5.07;;;14.60;99.90;;;;;;6286823;22;20312;-86
2022/10/30 03:44:43;;;;;;;15.27;3.90;;;14.50;99.90;;;;;;6308652;22;20312;-89
2022/10/30 03:47:32;;;;;;;13.90;5.15;;;14.40;99.90;;;;;;6307716;22;20098;-88
2022/10/30 03:50:21;;;;;;;10.75;4.45;;;14.50;99.90;;;;;;6307439;22;20094;-88
2022/10/30 03:53:10;;;;;;;11.75;4.25;;;14.40;99.90;;;;;;6306908;22;20033;-90
2022/10/30 03:56:00;;;;;;;20.50;4.75;;;14.40;99.90;;;;;;6309116;22;20102;-88
2022/10/30 03:58:50;;;;;;;13.23;4.13;;;14.10;99.90;;;;;;6287208;22;20391;-88
2022/10/30 04:01:37;;;;;;;16.35;3.92;;;13.90;99.90;;;;;;6311101;22;20070;-89
2022/10/30 04:04:24;;;;;;;14.70;4.72;;;13.80;99.90;;;;;;6316109;22;20019;-89
2022/10/30 04:07:12;;;;;;;16.48;5.25;;;13.70;99.90;;;;;;6309943;22;20027;-87
2022/10/30 04:09:59;;;;;;;16.60;4.88;;;13.60;99.90;;;;;;6307485;22;20051;-88
2022/10/30 04:12:49;;;;;;;15.52;4.85;;;13.70;99.90;;;;;;6309033;22;20038;-87
2022/10/30 04:15:37;;;;;;;24.67;5.50;;;13.60;99.90;;;;;;6308855;22;20031;-87
2022/10/30 04:18:26;;;;;;;17.40;5.25;;;13.50;99.90;;;;;;6308742;22;20027;-89
2022/10/30 04:21:13;;;;;;;15.48;4.65;;;13.40;99.90;;;;;;6307087;22;20055;-88
2022/10/30 04:24:02;;;;;;;11.13;4.75;;;13.30;99.90;;;;;;6286334;22;20051;-89
2022/10/30 04:26:49;;;;;;;13.80;3.85;;;13.10;99.90;;;;;;6307557;22;20094;-89
2022/10/30 04:29:36;;;;;;;13.88;4.32;;;13.10;99.90;;;;;;6307110;22;20027;-88
2022/10/30 04:32:23;;;;;;;13.95;4.03;;;13.20;99.90;;;;;;6309160;22;20027;-88
2022/10/30 04:35:11;;;;;;;12.38;4.90;;;13.30;99.90;;;;;;6311564;22;20038;-88
2022/10/30 04:38:06;;;;;;;10.35;3.63;;;13.30;99.90;;;;;;6314719;22;20051;-88
2022/10/30 04:40:57;;;;;;;14.07;4.03;;;13.20;99.90;;;;;;6317350;22;20019;-88
2022/10/30 04:43:47;;;;;;;17.95;4.47;;;13.10;99.90;;;;;;6314245;22;20027;-89
2022/10/30 04:46:35;;;;;;;12.80;3.97;;;13.10;99.90;;;;;;6321658;22;20046;-88
2022/10/30 04:49:24;;;;;;;14.60;4.90;;;13.10;99.90;;;;;;6325491;22;20034;-88
2022/10/30 04:52:11;;;;;;;14.07;5.00;;;13.10;99.90;;;;;;6331445;22;20034;-88
2022/10/30 04:55:01;;;;;;;13.25;4.60;;;13.00;99.90;;;;;;6330936;22;20023;-86
2022/10/30 04:57:50;;;;;;;14.65;4.60;;;12.90;99.90;;;;;;6326695;22;20057;-88
2022/10/30 05:00:39;;;;;;;13.30;4.35;;;12.80;99.90;;;;;;6313762;22;20023;-88
2022/10/30 05:03:26;;;;;;;15.80;4.32;;;12.60;99.90;;;;;;6308724;22;20107;-87
2022/10/30 05:06:26;;;;;;;19.50;4.85;;;12.50;99.90;;;;;;6309584;22;20027;-88
2022/10/30 05:09:13;;;;;;;17.73;4.38;;;12.40;99.90;;;;;;6286092;22;20027;-87
2022/10/30 05:12:00;;;;;;;19.42;5.40;;;12.30;99.90;;;;;;6307797;22;20024;-88
2022/10/30 05:14:49;;;;;;;15.10;5.18;;;12.30;99.90;;;;;;6314426;22;20023;-87
2022/10/30 05:17:36;;;;;;;21.05;5.00;;;12.30;99.90;;;;;;6287308;22;20188;-88
2022/10/30 05:20:23;;;;;;;13.32;4.85;;;12.20;99.90;;;;;;6308801;22;20038;-87
2022/10/30 05:23:10;;;;;;;12.75;4.30;;;12.20;99.90;;;;;;6310729;22;20023;-89
2022/10/30 05:26:03;;;;;;;18.40;4.32;;;12.20;99.90;;;;;;6308060;22;20050;-88
2022/10/30 05:28:53;;;;;;;;;;;12.10;99.90;;;;;;6308643;22;20019;-87
2022/10/30 05:31:42;;;;;;;13.40;4.28;;;12.20;99.90;;;;;;6286760;22;19994;-88
2022/10/30 05:34:29;;;;;;;12.38;4.93;;;12.20;99.90;;;;;;6308086;22;20098;-90
2022/10/30 05:37:16;;;;;;;10.65;4.35;;;12.10;99.90;;;;;;6287611;22;20094;-88
2022/10/30 05:40:04;;;;;;;14.32;4.97;;;12.10;99.90;;;;;;6310536;22;20415;-88
2022/10/30 05:42:54;;;;;;;10.00;4.05;;;12.10;99.90;;;;;;6311956;22;20100;-87
2022/10/30 05:45:48;;;;;;;11.25;4.60;;;12.10;99.90;;;;;;6297025;22;20113;-88
2022/10/30 05:48:38;;;;;;;9.90;4.68;;;12.00;99.90;;;;;;6314916;22;20379;-89
2022/10/30 05:51:27;;;;;;;16.85;4.80;;;11.90;99.90;;;;;;6314994;22;20111;-90
2022/10/30 05:54:15;;;;;;;13.07;4.63;;;11.90;1.00;;;;;;6306813;22;20023;-88
2022/10/30 05:57:02;;;;;;;14.57;4.80;;;11.90;1.00;;;;;;6285708;22;20023;-89
2022/10/30 05:59:52;;;;;;;14.07;4.95;;;11.90;1.00;;;;;;6307466;22;20081;-88
2022/10/30 06:02:39;;;;;;;12.65;4.65;;;11.90;1.00;;;;;;6285048;22;20027;-88
2022/10/30 06:05:28;;;;;;;16.38;4.22;;;12.00;1.00;;;;;;6309683;22;20031;-84
2022/10/30 06:08:15;;;;;;;15.57;5.10;;;11.90;1.00;;;;;;6307727;22;20106;-88
2022/10/30 06:11:02;;;;;;;16.73;5.57;;;11.80;1.00;;;;;;6286022;22;20046;-85
2022/10/30 06:13:52;;;;;;;15.00;6.00;;;11.70;1.00;;;;;;6309656;22;20030;-85
2022/10/30 06:16:39;;;;;;;15.63;4.55;;;11.60;1.00;;;;;;6307986;22;20023;-85
2022/10/30 06:19:26;;;;;;;17.75;5.03;;;11.70;1.00;;;;;;6307734;22;20184;-85
2022/10/30 06:22:13;;;;;;;13.73;5.13;;;11.80;1.00;;;;;;6307790;22;20395;-85
2022/10/30 06:25:01;;;;;;;13.13;4.63;;;11.90;1.00;;;;;;6307918;22;20070;-85
2022/10/30 06:27:49;;;;;;;21.80;6.05;;;12.00;1.00;;;;;;6308846;22;20072;-86
2022/10/30 06:30:39;;;;;;;20.42;4.60;;;12.00;1.00;;;;;;6307193;22;20477;-86
2022/10/30 06:33:26;;;;;;;12.63;4.40;;;12.10;1.00;;;;;;6309422;22;20027;-85
2022/10/30 06:36:13;;;;;;;14.25;4.07;;;12.20;1.00;;;;;;6285652;22;20409;-84
2022/10/30 06:39:00;;;;;;;22.42;5.57;;;12.20;1.00;;;;;;6307415;22;20077;-86
2022/10/30 06:41:47;;;;;;;14.70;4.85;;;12.30;1.00;;;;;;6309115;22;20033;-84
2022/10/30 06:44:34;;;;;;;11.80;4.35;;;12.30;1.00;;;;;;6306916;22;20053;-86
2022/10/30 06:47:21;;;;;;;12.07;4.10;;;12.30;1.00;;;;;;6285978;22;20019;-85
2022/10/30 06:50:14;;;;;;;12.18;4.45;;;12.50;99.90;;;;;;6305933;22;20112;-85
2022/10/30 06:53:04;;;;;;;11.73;4.25;;;12.70;99.90;;;;;;6308489;22;20034;-86
2022/10/30 06:55:55;;;;;;;11.73;4.07;;;12.80;99.90;;;;;;6287540;22;20437;-86
2022/10/30 06:58:45;;;;;;;18.42;5.22;;;12.90;99.90;;;;;;6308514;22;20102;-87
2022/10/30 07:01:32;;;;;;;11.63;4.45;;;13.10;99.90;;;;;;6307527;22;20469;-87
2022/10/30 07:04:19;;;;;;;13.45;4.40;;;13.40;99.90;;;;;;6309052;22;20415;-86
2022/10/30 07:07:08;;;;;;;12.55;3.97;;;13.70;99.90;;;;;;6307183;22;20046;-87
2022/10/30 07:09:56;;;;;;;17.13;4.32;;;14.00;99.90;;;;;;6306574;22;20333;-87
2022/10/30 07:12:53;;;;;;;12.20;4.00;;;14.30;99.90;;;;;;6307760;22;20042;-88
2022/10/30 07:15:40;;;;;;;12.85;3.83;;;14.30;99.90;;;;;;6309464;22;20103;-88
2022/10/30 07:18:30;;;;;;;13.40;4.20;;;14.30;99.90;;;;;;6308565;22;20030;-86
2022/10/30 07:21:18;;;;;;;14.68;4.22;;;14.20;99.90;;;;;;6307284;22;20330;-87
2022/10/30 07:24:05;;;;;;;15.25;4.40;;;14.10;99.90;;;;;;6306482;22;20050;-86
2022/10/30 07:26:54;;;;;;;11.90;5.18;;;14.10;99.90;;;;;;6305855;22;20102;-87
2022/10/30 07:29:41;;;;;;;11.50;4.40;;;14.10;99.90;;;;;;6307951;22;20030;-86
2022/10/30 07:32:28;;;;;;;11.32;4.55;;;14.20;99.90;;;;;;6307024;22;20076;-87
2022/10/30 07:35:15;;;;;;;10.50;4.43;;;14.10;99.90;;;;;;6308780;22;20023;-84
2022/10/30 07:38:09;;;;;;;18.15;5.18;;;14.10;99.90;;;;;;6284201;22;20031;-84
2022/10/30 07:40:58;;;;;;;14.88;4.65;;;14.30;99.90;;;;;;6307080;22;20098;-83
2022/10/30 07:43:46;;;;;;;17.98;5.20;;;14.40;99.90;;;;;;6307022;22;20055;-83
2022/10/30 07:46:33;;;;;;;14.57;4.90;;;14.60;99.90;;;;;;6307039;22;20033;-84
2022/10/30 07:49:20;;;;;;;17.23;4.22;;;14.70;99.90;;;;;;6306758;22;20116;-84
2022/10/30 07:52:07;;;;;;;16.58;4.38;;;14.60;99.90;;;;;;6307071;22;20350;-83
2022/10/30 07:55:02;;;;;;;18.85;4.32;;;14.60;99.90;;;;;;6307543;22;20027;-84
2022/10/30 07:57:49;;;;;;;14.88;4.07;;;14.70;99.90;;;;;;6309351;22;20398;-84
2022/10/30 08:00:36;;;;;;;19.17;4.70;;;15.00;99.90;;;;;;6308045;22;20051;-84
2022/10/30 08:03:24;;;;;;;12.98;4.35;;;15.30;99.90;;;;;;6307717;22;20023;-85
2022/10/30 08:06:11;;;;;;;12.60;3.90;;;15.50;99.90;;;;;;6310234;22;20118;-85
2022/10/30 08:09:00;;;;;;;8.35;3.90;;;15.70;99.90;;;;;;6287538;22;20088;-85
2022/10/30 08:11:47;;;;;;;11.10;3.38;;;16.00;99.90;;;;;;6310354;22;20282;-84
2022/10/30 08:14:37;;;;;;;15.65;4.30;;;16.30;99.90;;;;;;6307772;22;20051;-84
2022/10/30 08:17:24;;;;;;;8.63;3.17;;;16.60;99.90;;;;;;6310876;22;20023;-84
2022/10/30 08:20:17;;;;;;;10.18;3.80;;;16.90;92.60;;;;;;6309664;22;20359;-85
2022/10/30 08:23:04;;;;;;;15.80;4.22;;;17.10;80.60;;;;;;6310696;22;20035;-83
2022/10/30 08:25:56;;;;;;;15.20;3.58;;;17.30;58.10;;;;;;6267803;22;20081;-84
2022/10/30 08:28:43;;;;;;;19.20;3.72;;;17.50;47.10;;;;;;6311078;22;20027;-83
2022/10/30 08:31:30;;;;;;;12.20;3.78;;;17.70;38.10;;;;;;6309104;22;20098;-85
2022/10/30 08:34:18;;;;;;;11.77;3.78;;;17.90;34.10;;;;;;6288787;22;20110;-84
2022/10/30 08:37:06;;;;;;;9.65;3.65;;;18.40;26.70;;;;;;6288226;22;20102;-83
2022/10/30 08:39:54;;;;;;;13.35;3.40;;;18.90;15.10;;;;;;6310221;22;20085;-84
2022/10/30 08:42:41;;;;;;;12.10;3.20;;;19.20;7.30;;;;;;6309305;22;20111;-84
2022/10/30 08:45:28;;;;;;;15.00;3.83;;;19.30;1.00;;;;;;6308789;22;20023;-83
2022/10/30 08:48:17;;;;;;;11.45;3.13;;;19.40;1.00;;;;;;6309621;22;20303;-84
2022/10/30 08:51:05;;;;;;;11.80;3.40;;;19.90;1.00;;;;;;6309445;22;20027;-84
2022/10/30 08:53:53;;;;;;;8.90;3.05;;;20.30;1.00;;;;;;6286984;22;20098;-84
2022/10/30 08:56:40;;;;;;;10.23;3.63;;;20.90;1.00;;;;;;6311265;22;20034;-86
2022/10/30 08:59:28;;;;;;;16.58;2.75;;;21.40;1.00;;;;;;6308801;22;20084;-85
2022/10/30 09:02:15;;;;;;;12.43;3.13;;;21.50;1.00;;;;;;6285874;22;20101;-83
2022/10/30 09:05:04;;;;;;;18.48;5.57;;;21.80;1.00;;;;;;6306491;22;20375;-84
2022/10/30 09:08:00;;;;;;;9.85;3.10;;;22.00;1.00;;;;;;6287014;22;20072;-83
2022/10/30 09:10:54;;;;;;;8.10;2.55;;;22.10;1.00;;;;;;6309721;22;20038;-83
2022/10/30 09:13:41;;;;;;;8.27;2.85;;;22.10;1.00;;;;;;6309087;22;20106;-84
2022/10/30 09:16:28;;;;;;;8.13;2.97;;;22.20;1.00;;;;;;6306067;22;20112;-83
2022/10/30 09:19:15;;;;;;;7.88;2.78;;;22.50;1.00;;;;;;6305392;22;20042;-83
2022/10/30 09:22:05;;;;;;;9.77;2.60;;;22.70;1.00;;;;;;6304338;22;20594;-82
2022/10/30 09:24:52;;;;;;;11.88;2.72;;;23.00;1.00;;;;;;6307322;22;20015;-83
2022/10/30 09:27:39;;;;;;;12.70;2.63;;;23.40;1.00;;;;;;6309220;22;20047;-86
2022/10/30 09:30:29;;;;;;;12.45;3.15;;;24.10;1.00;;;;;;6287961;22;20055;-85
2022/10/30 09:33:16;;;;;;;9.70;2.67;;;25.00;1.00;;;;;;6310372;22;20512;-85
2022/10/30 09:36:04;;;;;;;9.77;2.85;;;25.90;1.00;;;;;;6308921;22;20042;-85
2022/10/30 09:38:54;;;;;;;9.27;2.42;;;26.60;1.00;;;;;;6308280;22;20094;-86
2022/10/30 09:41:44;;;;;;;10.63;2.75;;;26.60;1.00;;;;;;6312605;22;20019;-90
2022/10/30 09:45:04;;;;;;;9.00;2.60;;;26.70;1.00;;;;;;6308529;22;20034;-85
2022/10/30 09:48:45;;;;;;;7.20;2.33;;;27.40;1.00;;;;;;6309526;22;20371;-85
2022/10/30 09:51:55;;;;;;;6.03;2.15;;;28.10;1.00;;;;;;6309008;22;20160;-87
2022/10/30 09:55:19;;;;;;;13.30;2.10;;;28.20;1.00;;;;;;6306568;22;20468;-88
2022/10/30 09:58:21;;;;;;;8.23;2.63;;;27.90;1.00;;;;;;6307375;22;20027;-88
2022/10/30 10:01:23;;;;;;;11.60;2.10;;;28.00;1.00;;;;;;6285165;22;20376;-88
2022/10/30 10:04:30;;;;;;;7.70;2.10;;;28.40;1.00;;;;;;6309256;22;20023;-87
2022/10/30 10:07:26;;;;;;;4.45;1.88;;;28.20;1.00;;;;;;6306836;22;20149;-88
2022/10/30 10:10:29;;;;;;;9.32;2.00;;;27.90;1.00;;;;;;6306537;22;20106;-87
2022/10/30 10:13:42;;;;;;;5.32;1.88;;;28.20;1.00;;;;;;6287153;22;20394;-88
2022/10/30 10:16:34;;;;;;;6.88;2.45;;;28.30;1.00;;;;;;6309968;22;20102;-87
2022/10/30 10:19:22;;;;;;;6.78;1.92;;;27.80;1.00;;;;;;6315344;22;20076;-87
2022/10/30 10:22:27;;;;;;;8.95;1.80;;;28.10;1.00;;;;;;6321292;22;20079;-87
2022/10/30 10:25:16;;;;;;;8.23;2.13;;;28.90;1.00;;;;;;6322535;22;20019;-87
2022/10/30 10:28:14;;;;;;;6.78;2.05;;;28.90;1.00;;;;;;6300740;22;20034;-88
2022/10/30 10:31:15;;;;;;;8.73;1.80;;;28.90;1.00;;;;;;6307015;22;20015;-85
2022/10/30 10:34:20;;;;;;;6.90;1.58;;;29.50;1.00;;;;;;6309148;22;20019;-88
2022/10/30 10:37:14;;;;;;;6.43;2.22;;;29.80;1.00;;;;;;6311584;22;20019;-86
2022/10/30 10:40:18;;;;;;;6.18;1.85;;;29.40;1.00;;;;;;6315112;22;20023;-87
2022/10/30 10:43:58;;;;;;;5.88;1.85;;;29.40;1.00;;;;;;6311033;22;20086;-87
2022/10/30 10:47:04;;;;;;;7.43;1.92;;;29.50;1.00;;;;;;6158559;23;20118;-87
2022/10/30 10:50:12;;;;;;;8.27;2.10;;;29.90;1.00;;;;;;6154258;23;20275;-87
2022/10/30 10:53:10;;;;;;;7.40;1.70;;;30.30;1.00;;;;;;6306839;22;20077;-87
2022/10/30 10:55:59;;;;;;;7.20;1.63;;;31.00;1.00;;;;;;6306672;22;20043;-86
2022/10/30 10:58:55;;;;;;;7.43;1.90;;;30.90;1.00;;;;;;6308550;22;20088;-86
2022/10/30 11:01:50;;;;;;;7.60;1.55;;;30.60;1.00;;;;;;6286108;22;20019;-87
2022/10/30 11:04:46;;;;;;;7.47;2.15;;;31.20;1.00;;;;;;6306466;22;20018;-86
2022/10/30 11:07:42;;;;;;;4.40;1.70;;;32.10;1.00;;;;;;6308016;22;20023;-85
2022/10/30 11:10:29;;;;;;;7.53;1.58;;;32.40;1.00;;;;;;6285132;22;20023;-85
2022/10/30 11:13:16;;;;;;;7.68;1.75;;;32.40;1.00;;;;;;6305591;22;20108;-87
2022/10/30 11:16:28;;;;;;;7.38;2.03;;;32.70;1.00;;;;;;6286256;22;20031;-87
2022/10/30 11:19:15;;;;;;;3.25;1.20;;;33.50;1.00;;;;;;6305820;22;20054;-85
2022/10/30 11:22:31;;;;;;;4.10;1.73;;;33.60;1.00;;;;;;6283289;22;20406;-87
2022/10/30 11:25:25;;;;;;;5.93;1.83;;;33.30;1.00;;;;;;6308668;22;20055;-86
2022/10/30 11:28:34;;;;;;;3.70;1.35;;;32.60;1.00;;;;;;6308142;22;20069;-88
2022/10/30 11:31:29;;;;;;;9.73;2.08;;;32.50;1.00;;;;;;6306600;22;20051;-86
2022/10/30 11:34:16;;;;;;;5.70;1.80;;;32.20;1.00;;;;;;6307922;22;20104;-89
2022/10/30 11:37:03;;;;;;;5.82;1.67;;;31.60;1.00;;;;;;6286007;22;20019;-86
2022/10/30 11:40:02;;;;;;;4.78;1.65;;;31.20;1.00;;;;;;6284625;22;20322;-87
2022/10/30 11:43:02;;;;;;;5.80;1.60;;;31.10;1.00;;;;;;6308787;22;20054;-86
2022/10/30 11:45:54;;;;;;;8.48;1.58;;;30.60;1.00;;;;;;6309675;22;20101;-87
2022/10/30 11:48:44;;;;;;;6.20;1.65;;;30.60;1.00;;;;;;6308806;22;20110;-87
2022/10/30 11:51:38;;;;;;;3.28;1.75;;;30.60;1.00;;;;;;6308652;22;20419;-88
2022/10/30 11:54:26;;;;;;;4.13;1.27;;;30.90;1.00;;;;;;6308712;22;20462;-85
2022/10/30 11:57:21;;;;;;;5.20;1.50;;;30.70;1.00;;;;;;6287890;22;20027;-87
2022/10/30 12:00:19;;;;;;;5.30;1.85;;;31.10;1.00;;;;;;6311604;22;20031;-87
2022/10/30 12:03:32;;;;;;;5.13;1.63;;;31.10;1.00;;;;;;6307382;22;20024;-86
2022/10/30 12:06:24;;;;;;;2.53;1.50;;;31.70;1.00;;;;;;6308891;22;20022;-87
2022/10/30 12:09:18;;;;;;;5.22;2.08;;;32.60;1.00;;;;;;6308853;22;20109;-88
2022/10/30 12:12:21;;;;;;;4.60;1.20;;;32.90;1.00;;;;;;6309227;22;20023;-86
2022/10/30 12:15:19;;;;;;;4.78;1.33;;;33.10;1.00;;;;;;6308455;22;20035;-87
2022/10/30 12:18:16;;;;;;;3.85;1.10;;;33.00;1.00;;;;;;6286876;22;20023;-86
2022/10/30 12:21:03;;;;;;;7.47;1.80;;;32.70;1.00;;;;;;6308725;22;20363;-86
2022/10/30 12:24:05;;;;;;;3.33;1.00;;;32.80;1.00;;;;;;6287673;22;20037;-86
2022/10/30 12:26:54;;;;;;;4.30;1.52;;;32.70;1.00;;;;;;6312255;22;20019;-86
2022/10/30 12:29:57;;;;;;;5.40;1.67;;;32.60;1.00;;;;;;6287657;22;20019;-86
2022/10/30 12:33:15;;;;;;;3.72;1.60;;;32.30;1.00;;;;;;6289462;22;20023;-88
2022/10/30 12:36:11;;;;;;;3.38;1.42;;;32.00;1.00;;;;;;6312722;22;20027;-85
2022/10/30 12:39:10;;;;;;;5.15;1.70;;;31.50;1.00;;;;;;6311599;22;20092;-87
2022/10/30 12:42:17;;;;;;;5.55;1.50;;;30.80;1.00;;;;;;6286608;22;20034;-87
2022/10/30 12:45:23;;;;;;;5.45;1.10;;;30.80;1.00;;;;;;6308323;22;20023;-86
2022/10/30 12:48:21;;;;;;;4.70;1.90;;;31.20;1.00;;;;;;6309769;22;20019;-87
2022/10/30 12:51:15;;;;;;;6.53;2.92;;;31.50;1.00;;;;;;6309622;22;20135;-86
2022/10/30 12:54:11;;;;;;;7.40;1.83;;;31.30;1.00;;;;;;6308678;22;20454;-87
2022/10/30 12:57:11;;;;;;;3.47;1.30;;;31.40;1.00;;;;;;6307783;22;20054;-86
2022/10/30 13:00:05;;;;;;;7.13;1.40;;;31.50;1.00;;;;;;6288265;22;20403;-86
2022/10/30 13:03:00;;;;;;;3.83;1.30;;;31.90;1.00;;;;;;6284291;22;20050;-86
2022/10/30 13:05:55;;;;;;;4.50;1.35;;;32.10;1.00;;;;;;6285972;22;20019;-87
2022/10/30 13:08:54;;;;;;;4.63;2.05;;;32.50;1.00;;;;;;6308975;22;20073;-86
2022/10/30 13:11:50;;;;;;;3.22;1.38;;;32.70;1.00;;;;;;6307997;22;20023;-88
2022/10/30 13:14:49;;;;;;;4.75;1.60;;;33.00;1.00;;;;;;6307096;22;20090;-87
2022/10/30 13:17:36;;;;;;;5.35;1.15;;;33.10;1.00;;;;;;6286437;22;20106;-87
2022/10/30 13:20:27;;;;;;;7.45;1.30;;;33.40;1.00;;;;;;6307893;22;20027;-87
2022/10/30 13:23:22;;;;;;;4.15;1.25;;;33.70;1.00;;;;;;6307510;22;20533;-87
2022/10/30 13:26:18;;;;;;;5.38;1.65;;;34.30;1.00;;;;;;6309000;22;20019;-86
2022/10/30 13:29:30;;;;;;;3.55;1.50;;;34.80;1.00;;;;;;6307736;22;20410;-87
2022/10/30 13:32:47;;;;;;;3.33;1.35;;;34.80;1.00;;;;;;6308524;22;20097;-88
2022/10/30 13:35:52;;;;;;;4.10;1.50;;;34.70;1.00;;;;;;6308459;22;20038;-86
2022/10/30 13:39:02;;;;;;;6.88;1.58;;;34.30;1.00;;;;;;6309293;22;20114;-87
2022/10/30 13:42:23;;;;;;;4.38;1.40;;;34.00;1.00;;;;;;6285826;22;20142;-86
2022/10/30 13:45:41;;;;;;;3.35;1.48;;;34.30;1.00;;;;;;6307715;22;20510;-88
2022/10/30 13:48:54;;;;;;;3.10;1.30;;;34.30;1.00;;;;;;6306565;22;20034;-86
2022/10/30 13:52:05;;;;;;;6.03;1.42;;;34.00;1.00;;;;;;6307301;22;20489;-86
2022/10/30 13:55:09;;;;;;;4.95;1.30;;;33.50;1.00;;;;;;6288783;22;20027;-87
2022/10/30 13:58:01;;;;;;;6.15;1.70;;;33.60;1.00;;;;;;6308239;22;20110;-88
2022/10/30 14:01:04;;;;;;;3.95;1.83;;;33.80;1.00;;;;;;6308678;22;20027;-86
2022/10/30 14:04:28;;;;;;;4.85;1.40;;;32.90;1.00;;;;;;6317697;22;20322;-88
2022/10/30 14:07:47;;;;;;;2.90;1.40;;;32.10;1.00;;;;;;6321816;22;20031;-87
2022/10/30 14:10:41;;;;;;;2.75;1.45;;;31.40;1.00;;;;;;6310346;22;20085;-85
2022/10/30 14:13:52;;;;;;;5.20;1.48;;;30.50;1.00;;;;;;6309116;22;20031;-86
2022/10/30 14:16:45;;;;;;;5.07;1.30;;;30.00;1.00;;;;;;6307328;22;20090;-85
2022/10/30 14:19:34;;;;;;;5.68;1.30;;;29.90;1.00;;;;;;6285487;22;20057;-85
2022/10/30 14:22:24;;;;;;;6.25;1.75;;;29.70;1.00;;;;;;6308550;22;20019;-85
2022/10/30 14:25:15;;;;;;;4.70;1.63;;;29.10;1.00;;;;;;6308698;22;20054;-86
2022/10/30 14:28:03;;;;;;;5.50;1.65;;;28.70;1.00;;;;;;6307601;22;20100;-87
2022/10/30 14:31:11;;;;;;;5.55;2.13;;;28.20;1.00;;;;;;6306840;22;20027;-87
2022/10/30 14:33:59;;;;;;;6.18;1.50;;;27.50;1.00;;;;;;6308943;22;20457;-87
2022/10/30 14:36:49;;;;;;;4.82;2.17;;;27.30;1.00;;;;;;6308906;22;20027;-87
2022/10/30 14:39:43;;;;;;;7.53;1.90;;;27.10;1.00;;;;;;6310124;22;20031;-89
2022/10/30 14:42:50;;;;;;;4.70;1.58;;;26.80;1.00;;;;;;6308479;22;20443;-88
2022/10/30 14:45:59;;;;;;;3.75;1.70;;;26.80;1.00;;;;;;6307648;22;20034;-87
2022/10/30 14:48:55;;;;;;;7.30;2.33;;;26.60;1.00;;;;;;6308161;22;20474;-87
2022/10/30 14:52:02;;;;;;;7.07;1.88;;;26.50;1.00;;;;;;6306491;22;20023;-86
2022/10/30 14:55:18;;;;;;;11.95;1.90;;;26.20;1.00;;;;;;6308529;22;20259;-85
2022/10/30 14:58:06;;;;;;;7.22;1.48;;;25.80;1.00;;;;;;6297257;22;20019;-85
2022/10/30 15:01:02;;;;;;;3.25;1.73;;;25.70;1.00;;;;;;6288991;22;20106;-85